Omaha Millard, NE

3:51 AM CDT on April 26, 2017 (GMT -0500)
Millard Municipal

Weather History for KMLE - June, 2013

Change the Weather History Date:

Friday, June 21, 2013

  Actual Average (KOFF) Record (KOFF)
Temperature  
Mean Temperature 86 °F -  
Max Temperature 95 °F 81 °F 93 °F (2002)
Min Temperature 78 °F 62 °F 55 °F (2001)
Cooling Degree Days 22    
Growing Degree Days 36 (Base 50)    
Moisture  
Dew Point 70 °F    
Average Humidity 61    
Maximum Humidity 77    
Minimum Humidity 41    
Precipitation  
Precipitation 0.00 in - - ()
Sea Level Pressure  
Sea Level Pressure 29.84 in    
Wind  
Wind Speed 12 mph (SSE)    
Max Wind Speed 22 mph    
Max Gust Speed 29 mph    
Visibility 10 miles    
Events Thunderstorm    
Averages and records for this station are not official NWS values.
T = Trace of Precipitation, MM = Missing Value Source: NWS Daily Summary

Daily Weather History Graph

Daily Weather History Graph

Search for Another Location

Airport or City:

Trip Planner

Search our weather history database for the weather conditions in past years. The results will help you decide how hot, cold, wet, or windy it might be!

Date:

Astronomy

Jun. 21, 2013 Rise Set
Actual Time 5:51 AM CDT 9:00 PM CDT
Civil Twilight 5:18 AM CDT 9:34 PM CDT
Nautical Twilight 4:34 AM CDT 10:18 PM CDT
Astronomical Twilight 3:43 AM CDT 11:09 PM CDT
Moon 7:11 PM CDT (6/21) 4:09 AM CDT (6/21)
Length of Visible Light 16h 16m
Length of Day
15h 09m
Waxing Gibbous, 95% of the Moon is Illuminated
Jun 21
Waxing Gibbous
Jun 23
Full
Jun 29
Last Quarter
Jul 8
New
Jul 15
First Quarter

Hourly Weather History & Observations

Time (CDT) Temp. Heat Index Dew Point Humidity Pressure Visibility Wind Dir Wind Speed Gust Speed Precip Events Conditions
12:15 AM 83.7 °F 88.9 °F 71.6 °F 67% 29.88 in 10.0 mi SSE 17.3 mph 24.2 mph N/A   Mostly Cloudy
12:35 AM 83.3 °F 88.4 °F 71.6 °F 68% 29.88 in 10.0 mi SSE 15.0 mph 24.2 mph N/A   Scattered Clouds
12:55 AM 82.8 °F 87.7 °F 71.8 °F 69% 29.87 in 10.0 mi SSE 13.8 mph 20.7 mph N/A   Clear
1:15 AM 82.4 °F 87.2 °F 71.8 °F 70% 29.87 in 10.0 mi SSE 10.4 mph - N/A   Clear
1:35 AM 81.9 °F 86.4 °F 71.8 °F 71% 29.87 in 10.0 mi South 10.4 mph 16.1 mph N/A   Clear
1:55 AM 81.7 °F 86.3 °F 71.8 °F 72% 29.85 in 10.0 mi SSE 10.4 mph 17.3 mph N/A   Clear
2:15 AM 81.5 °F 86.1 °F 72.1 °F 73% 29.85 in 10.0 mi SSE 12.7 mph 19.6 mph N/A   Clear
2:35 AM 81.0 °F 85.2 °F 72.1 °F 74% 29.84 in 10.0 mi SSE 13.8 mph 19.6 mph N/A   Clear
2:55 AM 80.6 °F 84.7 °F 72.1 °F 75% 29.83 in 10.0 mi SSE 12.7 mph 19.6 mph N/A   Clear
3:15 AM 80.6 °F 84.7 °F 72.1 °F 75% 29.83 in 10.0 mi SSE 11.5 mph 19.6 mph N/A   Clear
3:35 AM 80.2 °F 84.2 °F 72.1 °F 76% 29.82 in 10.0 mi SSE 13.8 mph 21.9 mph N/A   Clear
3:55 AM 79.9 °F - 71.8 °F 76% 29.81 in 10.0 mi SSE 11.5 mph 17.3 mph N/A   Clear
4:15 AM 80.1 °F 83.7 °F 71.6 °F 75% 29.82 in 10.0 mi SSE 10.4 mph 17.3 mph N/A   Clear
4:35 AM 80.4 °F 84.1 °F 71.2 °F 73% 29.83 in 10.0 mi SSE 15.0 mph 19.6 mph N/A   Clear
4:55 AM 80.1 °F 83.4 °F 70.9 °F 73% 29.83 in 10.0 mi South 11.5 mph 18.4 mph N/A   Clear
5:15 AM 79.7 °F - 70.7 °F 74% 29.84 in 10.0 mi SSE 8.1 mph - N/A   Clear
5:35 AM 79.2 °F - 70.7 °F 75% 29.85 in 10.0 mi SSE 9.2 mph - N/A   Clear
5:55 AM 79.0 °F - 70.3 °F 75% 29.85 in 10.0 mi SE 8.1 mph - N/A   Clear
6:15 AM 78.1 °F - 70.2 °F 77% 29.85 in 10.0 mi SE 6.9 mph - N/A   Clear
6:35 AM 78.4 °F - 70.0 °F 75% 29.86 in 10.0 mi SSE 5.8 mph - N/A   Clear
6:55 AM 78.8 °F - 70.2 °F 75% 29.85 in 10.0 mi SE 8.1 mph - N/A   Clear
7:15 AM 79.2 °F - 70.3 °F 74% 29.85 in 10.0 mi SSE 9.2 mph - N/A   Clear
7:35 AM 79.7 °F - 70.3 °F 73% 29.85 in 10.0 mi SSE 6.9 mph - N/A   Clear
7:55 AM 79.9 °F - 70.2 °F 72% 29.84 in 10.0 mi SSE 11.5 mph 17.3 mph N/A   Clear
8:15 AM 80.1 °F 83.3 °F 70.2 °F 72% 29.86 in 10.0 mi SSE 10.4 mph - N/A   Clear
8:35 AM 80.4 °F 83.6 °F 70.0 °F 70% 29.86 in 10.0 mi SSE 10.4 mph - N/A   Clear
8:55 AM 81.5 °F 85.3 °F 70.3 °F 69% 29.85 in 10.0 mi SSE 8.1 mph - N/A   Clear
9:15 AM 81.7 °F 85.2 °F 69.8 °F 67% 29.86 in 10.0 mi South 11.5 mph 17.3 mph N/A   Clear
9:35 AM 82.6 °F 86.4 °F 69.8 °F 65% 29.86 in 10.0 mi South 12.7 mph 18.4 mph N/A   Clear
9:55 AM 82.9 °F 86.7 °F 69.8 °F 64% 29.86 in 10.0 mi South 11.5 mph 20.7 mph N/A   Clear
10:15 AM 82.9 °F 86.7 °F 69.8 °F 64% 29.87 in 10.0 mi South 8.1 mph - N/A   Clear
10:35 AM 83.3 °F 87.4 °F 70.0 °F 64% 29.87 in 10.0 mi SSE 10.4 mph 16.1 mph N/A   Clear
10:55 AM 83.1 °F 86.8 °F 69.3 °F 63% 29.87 in 10.0 mi SE 10.4 mph - N/A Thunderstorm Thunderstorm
11:15 AM 85.1 °F 89.1 °F 69.4 °F 59% 29.87 in 10.0 mi SSE 11.5 mph 16.1 mph N/A   Clear
11:35 AM 84.4 °F 88.5 °F 69.8 °F 61% 29.87 in 10.0 mi SSE 12.7 mph - N/A   Clear
11:55 AM 84.4 °F 88.2 °F 69.3 °F 60% 29.87 in 10.0 mi SSE 8.1 mph - N/A Thunderstorm Clear
12:15 PM 87.1 °F 92.0 °F 70.3 °F 57% 29.86 in 10.0 mi SSE 9.2 mph - N/A   Clear
12:35 PM 87.1 °F 93.2 °F 71.6 °F 60% 29.86 in 10.0 mi SE 12.7 mph 16.1 mph N/A   Clear
12:55 PM 89.4 °F 94.0 °F 69.3 °F 51% 29.85 in 10.0 mi SE 16.1 mph - N/A   Clear
1:15 PM 88.9 °F 93.4 °F 69.4 °F 52% 29.85 in 10.0 mi SSE 15.0 mph - N/A   Clear
1:35 PM 88.0 °F 93.4 °F 70.7 °F 56% 29.85 in 10.0 mi SE 13.8 mph - N/A   Clear
1:55 PM 88.7 °F 95.7 °F 72.0 °F 58% 29.85 in 10.0 mi SE 13.8 mph 18.4 mph N/A   Clear
2:15 PM 88.9 °F 95.1 °F 71.6 °F 56% 29.84 in 10.0 mi SE 16.1 mph 20.7 mph N/A   Clear
2:35 PM 89.8 °F 96.0 °F 71.1 °F 54% 29.83 in 10.0 mi SSE 16.1 mph 21.9 mph N/A   Clear
2:55 PM 89.8 °F 96.0 °F 71.1 °F 54% 29.84 in 10.0 mi SE 12.7 mph 20.7 mph N/A   Clear
3:15 PM 91.6 °F 98.2 °F 70.9 °F 51% 29.84 in 10.0 mi SSE 9.2 mph 17.3 mph N/A   Clear
3:35 PM 92.1 °F 97.2 °F 69.1 °F 47% 29.83 in 10.0 mi SSE 12.7 mph 20.7 mph N/A   Clear
3:55 PM 91.9 °F 96.4 °F 68.4 °F 46% 29.83 in 10.0 mi SSE 12.7 mph 24.2 mph N/A   Clear
4:15 PM 92.7 °F 99.4 °F 71.2 °F 49% 29.81 in 10.0 mi SSE 15.0 mph - N/A   Clear
4:35 PM 94.1 °F 100.6 °F 70.3 °F 46% 29.80 in 10.0 mi SSE 20.7 mph 26.5 mph N/A   Clear
4:55 PM 94.3 °F 100.4 °F 70.2 °F 45% 29.79 in 10.0 mi South 16.1 mph 25.3 mph N/A   Clear
5:15 PM 94.6 °F 98.9 °F 67.6 °F 41% 29.79 in 10.0 mi SSE 21.9 mph 28.8 mph N/A   Clear
5:35 PM 95.0 °F 100.7 °F 69.1 °F 43% 29.78 in 10.0 mi SSE 11.5 mph 27.6 mph N/A   Clear
5:55 PM 94.6 °F 99.4 °F 68.0 °F 42% 29.77 in 10.0 mi SSE 20.7 mph 28.8 mph N/A   Clear
6:15 PM 94.3 °F 99.8 °F 69.1 °F 44% 29.78 in 10.0 mi South 16.1 mph 24.2 mph N/A   Clear
6:35 PM 94.1 °F 100.0 °F 70.0 °F 45% 29.78 in 10.0 mi SSE 19.6 mph 25.3 mph N/A   Clear
6:55 PM 93.2 °F 99.4 °F 70.2 °F 47% 29.79 in 10.0 mi South 12.7 mph 26.5 mph N/A   Clear
7:15 PM 92.7 °F 98.3 °F 69.4 °F 47% 29.79 in 10.0 mi SSE 15.0 mph 23.0 mph N/A   Clear
7:35 PM 91.8 °F 97.0 °F 69.6 °F 48% 29.80 in 10.0 mi South 11.5 mph 23.0 mph N/A   Clear
7:55 PM 90.9 °F 96.2 °F 70.0 °F 50% 29.81 in 10.0 mi SSE 10.4 mph 21.9 mph N/A   Clear
8:15 PM 90.0 °F 95.4 °F 70.0 °F 52% 29.80 in 10.0 mi SE 12.7 mph 19.6 mph N/A   Clear
8:35 PM 89.2 °F 94.5 °F 70.2 °F 53% 29.81 in 10.0 mi SE 11.5 mph 17.3 mph N/A   Clear
8:55 PM 88.7 °F 93.9 °F 70.0 °F 54% 29.81 in 10.0 mi SSE 10.4 mph - N/A   Clear
9:15 PM 88.0 °F 92.9 °F 69.8 °F 55% 29.82 in 10.0 mi SE 8.1 mph - N/A   Clear
9:35 PM 86.9 °F 91.7 °F 69.8 °F 57% 29.83 in 10.0 mi SSE 10.4 mph - N/A   Clear
9:55 PM 87.8 °F 91.8 °F 68.9 °F 53% 29.84 in 10.0 mi SSE 10.4 mph 16.1 mph N/A   Clear
10:15 PM 86.4 °F 90.4 °F 68.9 °F 56% 29.84 in 10.0 mi SSE 10.4 mph - N/A   Clear
10:35 PM 85.5 °F 89.8 °F 69.6 °F 59% 29.84 in 10.0 mi SSE 6.9 mph - N/A   Clear
10:55 PM 84.2 °F 88.7 °F 70.5 °F 63% 29.84 in 10.0 mi SSE 10.4 mph 16.1 mph N/A   Clear
11:15 PM 85.1 °F 90.1 °F 70.7 °F 62% 29.83 in 10.0 mi SSE 9.2 mph - N/A   Clear
11:35 PM 84.6 °F 89.4 °F 70.7 °F 63% 29.83 in 10.0 mi SSE 13.8 mph 18.4 mph N/A   Clear
11:55 PM 84.2 °F 88.7 °F 70.3 °F 63% 29.83 in 10.0 mi SSE 9.2 mph 18.4 mph N/A   Clear